Data for 01/17/2007

Time Sea-Level Adjusted Pressure Absolute Pressure Temperature Relative Humidity Dew Point   
(mb) (inHg) (mb) (inHg) (C) (F) (%) (C) (F)
00:05 1018 30.06 847 25.01 -6.4 20.5 70 -11 12.2
00:10 1018 30.06 847 25.01 -6.6 20.1 72 -10.9 12.3
00:15 1018 30.06 847 25.01 -7.2 19.1 76 -10.8 12.6
00:20 1018 30.06 847 25.01 -7.1 19.1 73 -11.2 11.8
00:25 1018 30.06 847 25.01 -7.1 19.2 73 -11.1 12
00:30 1018 30.06 847 25.01 -7.1 19.2 75 -10.9 12.4
00:35 1017 30.03 847 25.01 -7.2 19 74 -11 12.1
00:40 1017 30.03 847 25.01 -7.5 18.6 77 -10.8 12.6
00:45 1017 30.03 847 25.01 -8 17.6 82 -10.5 13.1
00:50 1017 30.03 847 25.01 -8 17.6 82 -10.6 13
00:55 1017 30.03 846 24.98 -7.8 18 79 -10.8 12.6
01:00 1017 30.03 846 24.98 -8 17.7 82 -10.5 13.1
01:05 1017 30.03 846 24.98 -7.7 18.1 83 -10.1 13.8
01:10 1017 30.03 846 24.98 -8 17.7 77 -11.3 11.7
01:15 1017 30.03 846 24.98 -7.7 18.2 75 -11.4 11.5
01:20 1017 30.03 846 24.98 -7.8 17.9 75 -11.4 11.4
01:25 1017 30.03 846 24.98 -8.2 17.3 78 -11.4 11.4
01:30 1017 30.03 846 24.98 -8.1 17.3 77 -11.5 11.4
01:35 1017 30.03 846 24.98 -8.1 17.5 77 -11.4 11.5
01:40 1017 30.03 846 24.98 -7.9 17.7 76 -11.4 11.5
01:45 1017 30.03 846 24.98 -8 17.6 77 -11.4 11.5
01:50 1017 30.03 846 24.98 -8.2 17.2 77 -11.6 11
01:55 1017 30.03 846 24.98 -8.6 16.5 78 -11.8 10.8
02:00 1017 30.03 846 24.98 -8.8 16.2 80 -11.6 11.1
02:05 1017 30.03 846 24.98 -8.6 16.5 80 -11.5 11.3
02:10 1017 30.03 846 24.98 -8.4 16.9 78 -11.5 11.3
02:15 1017 30.03 846 24.98 -8.4 16.9 78 -11.5 11.2
02:20 1017 30.03 846 24.98 -8.3 17 78 -11.5 11.4
02:25 1017 30.03 846 24.98 -8.2 17.2 78 -11.4 11.5
02:30 1017 30.03 846 24.98 -8.4 16.8 78 -11.7 11
02:35 1017 30.03 846 24.98 -8.4 16.9 79 -11.5 11.4
02:40 1017 30.03 846 24.98 -8.1 17.3 76 -11.7 10.9
02:45 1017 30.03 846 24.98 -9.2 15.5 79 -12.1 10.2
02:50 1017 30.03 846 24.98 -9.6 14.8 84 -11.8 10.8
02:55 1017 30.03 846 24.98 -9.2 15.4 84 -11.5 11.2
03:00 1016 30 846 24.98 -9 15.8 85 -11.1 12
03:05 1016 30 846 24.98 -8.5 16.7 80 -11.3 11.6
03:10 1016 30 846 24.98 -9.1 15.7 83 -11.4 11.4
03:15 1016 30 846 24.98 -9.2 15.4 84 -11.5 11.3
03:20 1016 30 846 24.98 -9.3 15.3 82 -11.8 10.7
03:25 1016 30 846 24.98 -9.4 15.1 83 -11.7 10.9
03:30 1016 30 846 24.98 -9.3 15.3 84 -11.5 11.3
03:35 1016 30 846 24.98 -8.9 16 82 -11.4 11.5
03:40 1016 30 846 24.98 -8.6 16.5 82 -11.2 11.9
03:45 1016 30 846 24.98 -8.6 16.6 81 -11.2 11.8
03:50 1016 30 846 24.98 -8.7 16.3 81 -11.4 11.4
03:55 1016 30 846 24.98 -9 15.8 81 -11.7 11
04:00 1016 30 846 24.98 -9.4 15.2 83 -11.8 10.8
04:05 1016 30 846 24.98 -9.6 14.7 83 -11.9 10.5
04:10 1016 30 846 24.98 -9.6 14.7 83 -11.9 10.5
04:15 1016 30 846 24.98 -9.6 14.8 83 -11.9 10.6
04:20 1016 30 846 24.98 -9.4 15 83 -11.8 10.7
04:25 1016 30 846 24.98 -9.6 14.8 83 -11.9 10.5
04:30 1016 30 846 24.98 -9.6 14.8 86 -11.5 11.2
04:35 1016 30 846 24.98 -9.2 15.4 82 -11.8 10.7
04:40 1016 30 846 24.98 -9.8 14.4 85 -11.9 10.5
04:45 1016 30 846 24.98 -10.1 13.8 87 -11.9 10.5
04:50 1016 30 846 24.98 -10.1 13.8 86 -11.9 10.5
04:55 1016 30 846 24.98 -10 14 86 -11.9 10.6
05:00 1016 30 846 24.98 -9.8 14.3 83 -12.1 10.1
05:05 1016 30 846 24.98 -10.2 13.7 84 -12.4 9.7
05:10 1016 30 846 24.98 -10.2 13.6 87 -12 10.4
05:15 1016 30 846 24.98 -9.8 14.5 84 -12 10.4
05:20 1017 30.03 846 24.98 -9.6 14.7 83 -12 10.3
05:25 1017 30.03 846 24.98 -9.5 14.9 85 -11.6 11.1
05:30 1017 30.03 846 24.98 -9.1 15.6 83 -11.6 11.2
05:35 1017 30.03 846 24.98 -8.7 16.3 82 -11.3 11.7
05:40 1017 30.03 846 24.98 -8.5 16.7 81 -11.2 11.8
05:45 1017 30.03 846 24.98 -8.5 16.8 79 -11.5 11.3
05:50 1017 30.03 846 24.98 -8.2 17.3 76 -11.7 10.9
05:55 1017 30.03 846 24.98 -7.9 17.8 75 -11.6 11.1
06:00 1017 30.03 846 24.98 -8.2 17.3 77 -11.6 11.2
06:05 1017 30.03 846 24.98 -8.3 17.1 76 -11.8 10.7
06:10 1017 30.03 846 24.98 -8.2 17.2 76 -11.7 10.9
06:15 1017 30.03 846 24.98 -8.3 17.1 75 -12 10.4
06:20 1017 30.03 846 24.98 -8 17.7 73 -12 10.4
06:25 1017 30.03 846 24.98 -8.1 17.3 75 -11.9 10.6
06:30 1017 30.03 846 24.98 -8.1 17.4 74 -12 10.4
06:35 1017 30.03 846 24.98 -8.2 17.2 74 -12.1 10.2
06:40 1017 30.03 846 24.98 -8.2 17.3 73 -12.2 10
06:45 1017 30.03 846 24.98 -8.2 17.3 73 -12.2 10
06:50 1017 30.03 846 24.98 -8.3 17.1 74 -12.2 10
06:55 1017 30.03 846 24.98 -8.5 16.8 73 -12.5 9.4
07:00 1017 30.03 846 24.98 -8.6 16.6 75 -12.3 9.9
07:05 1017 30.03 846 24.98 -8.8 16.2 74 -12.5 9.5
07:10 1017 30.03 846 24.98 -9 15.8 76 -12.5 9.5
07:15 1017 30.03 846 24.98 -8.9 16 76 -12.4 9.7
07:20 1017 30.03 846 24.98 -8.7 16.4 74 -12.5 9.4
07:25 1017 30.03 846 24.98 -8.9 16.1 75 -12.5 9.5
07:30 1017 30.03 846 24.98 -9.7 14.6 79 -12.6 9.3
07:35 1017 30.03 846 24.98 -9.8 14.4 79 -12.9 8.8
07:40 1017 30.03 846 24.98 -9.6 14.7 78 -12.7 9.1
07:45 1017 30.03 846 24.98 -9.6 14.8 78 -12.6 9.3
07:50 1017 30.03 846 24.98 -9.6 14.7 80 -12.4 9.6
07:55 1017 30.03 846 24.98 -9.7 14.6 80 -12.6 9.3
08:00 1017 30.03 846 24.98 -10 13.9 80 -12.8 9
08:05 1017 30.03 846 24.98 -10.7 12.8 83 -13.1 8.4
08:10 1017 30.03 846 24.98 -10.4 13.3 80 -13.3 8.1
08:15 1017 30.03 846 24.98 -10.1 13.8 78 -13.3 8.1
08:20 1017 30.03 846 24.98 -9.6 14.8 76 -13.1 8.4
08:25 1017 30.03 846 24.98 -9.1 15.6 72 -13.3 8.1
08:30 1017 30.03 846 24.98 -8.9 16 70 -13.3 8
08:35 1017 30.03 846 24.98 -8.9 16 71 -13.2 8.2
08:40 1017 30.03 846 24.98 -9 15.9 72 -13.2 8.3
08:45 1017 30.03 846 24.98 -8.9 15.9 72 -13.1 8.3
08:50 1017 30.03 846 24.98 -8.8 16.1 72 -13 8.6
08:55 1017 30.03 846 24.98 -8.9 16 72 -13 8.7
09:00 1017 30.03 846 24.98 -8.7 16.3 72 -12.9 8.7
09:05 1017 30.03 846 24.98 -8.6 16.5 72 -12.7 9.1
09:10 1017 30.03 847 25.01 -8.3 17.1 71 -12.7 9.2
09:15 1018 30.06 847 25.01 -8.2 17.3 71 -12.6 9.3
09:20 1018 30.06 847 25.01 -7.8 18 69 -12.5 9.5
09:25 1018 30.06 847 25.01 -7.7 18.1 69 -12.4 9.7
09:30 1018 30.06 847 25.01 -8.6 16.6 73 -12.7 9.2
09:35 1018 30.06 847 25.01 -8.9 16.1 75 -12.6 9.4
09:40 1018 30.06 847 25.01 -9 15.8 77 -12.4 9.7
09:45 1018 30.06 847 25.01 -8.8 16.2 76 -12.3 9.9
09:50 1018 30.06 847 25.01 -8.3 17.1 73 -12.3 9.9
09:55 1018 30.06 847 25.01 -8 17.6 72 -12.2 10
10:00 1018 30.06 847 25.01 -7.8 17.9 72 -12 10.4
10:05 1018 30.06 847 25.01 -7.6 18.3 71 -12 10.3
10:10 1018 30.06 848 25.04 -7.5 18.5 70 -12 10.3
10:15 1018 30.06 848 25.04 -7.3 18.9 70 -11.9 10.5
10:20 1019 30.09 848 25.04 -7.9 17.9 73 -11.9 10.7
10:25 1019 30.09 848 25.04 -8.9 16 75 -12.6 9.3
10:30 1019 30.09 848 25.04 -9.3 15.3 77 -12.6 9.2
10:35 1019 30.09 848 25.04 -8.9 15.9 76 -12.5 9.5
10:40 1019 30.09 848 25.04 -8.8 16.3 76 -12.2 10
10:45 1019 30.09 848 25.04 -8.6 16.4 78 -11.7 10.9
10:50 1019 30.09 848 25.04 -8.3 17 80 -11.3 11.7
10:55 1019 30.09 848 25.04 -8.1 17.4 80 -11 12.1
11:00 1019 30.09 848 25.04 -8.2 17.2 83 -10.6 12.9
11:05 1019 30.09 848 25.04 -8.1 17.5 84 -10.3 13.4
11:10 1019 30.09 848 25.04 -7.9 17.8 85 -10 14
11:15 1019 30.09 848 25.04 -7.7 18.1 85 -9.8 14.4
11:20 1019 30.09 848 25.04 -7.7 18.2 85 -9.7 14.5
11:25 1019 30.09 848 25.04 -8.1 17.5 89 -9.6 14.8
11:30 1019 30.09 848 25.04 -8.3 17.1 87 -10 14
11:35 1019 30.09 848 25.04 -8.4 16.8 88 -10 14
11:40 1019 30.09 848 25.04 -8.3 17 89 -9.8 14.3
11:45 1019 30.09 848 25.04 -8.1 17.5 89 -9.6 14.8
11:50 1019 30.09 848 25.04 -7.9 17.9 89 -9.4 15.2
11:55 1019 30.09 848 25.04 -7.7 18.1 89 -9.3 15.2
12:00 1019 30.09 848 25.04 -7.8 17.9 88 -9.4 15
12:05 1018 30.06 848 25.04 -7.7 18.2 88 -9.3 15.3
12:10 1019 30.09 848 25.04 -7.4 18.7 89 -8.9 16
12:15 1019 30.09 848 25.04 -7.2 19.1 89 -8.6 16.4
12:20 1019 30.09 848 25.04 -6.9 19.6 89 -8.5 16.8
12:25 1018 30.06 848 25.04 -6.8 19.8 88 -8.4 16.9
12:30 1018 30.06 848 25.04 -6.8 19.7 89 -8.4 16.9
12:35 1018 30.06 847 25.01 -6.9 19.6 89 -8.4 16.8
12:40 1018 30.06 847 25.01 -7.1 19.2 90 -8.5 16.7
12:45 1018 30.06 847 25.01 -7.2 19 91 -8.5 16.8
12:50 1018 30.06 847 25.01 -7 19.4 90 -8.3 17
12:55 1018 30.06 847 25.01 -6.6 20.1 89 -8.2 17.3
13:00 1018 30.06 847 25.01 -6.3 20.6 85 -8.5 16.7
13:05 1018 30.06 847 25.01 -6.1 21 83 -8.6 16.4
13:10 1018 30.06 847 25.01 -6 21.1 81 -8.7 16.3
13:15 1018 30.06 847 25.01 -6.1 21.1 82 -8.6 16.4
13:20 1018 30.06 847 25.01 -6 21.1 80 -8.9 16
13:25 1018 30.06 847 25.01 -6 21.2 79 -9.1 15.6
13:30 1018 30.06 847 25.01 -6.1 21 77 -9.5 15
13:35 1018 30.06 847 25.01 -5.8 21.6 74 -9.8 14.4
13:40 1018 30.06 847 25.01 -5.2 22.6 71 -9.8 14.4
13:45 1018 30.06 847 25.01 -5.1 22.9 69 -9.9 14.2
13:50 1018 30.06 847 25.01 -5.3 22.4 70 -10 13.9
13:55 1018 30.06 847 25.01 -5.1 22.8 68 -10.1 13.8
14:00 1018 30.06 847 25.01 -5.1 22.9 67 -10.3 13.4
14:05 1018 30.06 847 25.01 -5.8 21.5 68 -10.8 12.6
14:10 1018 30.06 847 25.01 -6.1 21.1 68 -11 12.1
14:15 1018 30.06 847 25.01 -6.2 20.8 67 -11.3 11.6
14:20 1018 30.06 847 25.01 -5.7 21.7 64 -11.4 11.4
14:25 1017 30.03 847 25.01 -5.6 21.8 64 -11.4 11.4
14:30 1017 30.03 847 25.01 -5.5 22.1 62 -11.7 10.9
14:35 1018 30.06 847 25.01 -5.1 22.8 60 -11.8 10.8
14:40 1017 30.03 847 25.01 -4.5 23.9 59 -11.5 11.3
14:45 1017 30.03 847 25.01 -4.5 23.9 57 -11.7 10.9
14:50 1017 30.03 847 25.01 -5.2 22.6 58 -12.3 9.9
14:55 1017 30.03 847 25.01 -5.3 22.5 58 -12.3 9.8
15:00 1017 30.03 847 25.01 -4.9 23.1 54 -12.9 8.8
15:05 1017 30.03 847 25.01 -4.5 23.9 52 -12.9 8.8
15:10 1017 30.03 847 25.01 -4.4 24.1 51 -13.2 8.3
15:15 1018 30.06 847 25.01 -4.4 24.1 50 -13.3 8.1
15:20 1018 30.06 847 25.01 -4.1 24.6 51 -12.9 8.8
15:25 1018 30.06 847 25.01 -4 24.8 49 -13.1 8.4
15:30 1018 30.06 847 25.01 -4.2 24.4 51 -12.8 8.9
15:35 1018 30.06 847 25.01 -4 24.8 49 -13.2 8.3
15:40 1018 30.06 847 25.01 -3.8 25.1 47 -13.5 7.7
15:45 1018 30.06 847 25.01 -3.9 25 48 -13.3 8
15:50 1018 30.06 847 25.01 -3.8 25.1 48 -13.2 8.2
15:55 1018 30.06 847 25.01 -3.7 25.3 46 -13.8 7.1
16:00 1018 30.06 847 25.01 -3.4 25.9 47 -13.1 8.5
16:05 1018 30.06 847 25.01 -3.2 26.2 50 -12.2 10.1
16:10 1018 30.06 848 25.04 -3.4 26 53 -11.5 11.2
16:15 1019 30.09 848 25.04 -3.9 25 56 -11.4 11.5
16:20 1019 30.09 848 25.04 -4.4 24.1 64 -10.3 13.5
16:25 1019 30.09 848 25.04 -4.9 23.2 66 -10.3 13.5
16:30 1019 30.09 848 25.04 -5.2 22.7 68 -10.1 13.8
16:35 1019 30.09 848 25.04 -5 22.9 68 -10 14
16:40 1019 30.09 848 25.04 -4.9 23.1 69 -9.9 14.3
16:45 1019 30.09 848 25.04 -4.7 23.6 65 -10.3 13.4
16:50 1019 30.09 848 25.04 -4.6 23.7 66 -10.1 13.9
16:55 1019 30.09 848 25.04 -4.7 23.6 67 -9.8 14.3
17:00 1019 30.09 848 25.04 -4.8 23.4 70 -9.5 14.9
17:05 1019 30.09 848 25.04 -4.9 23.2 70 -9.5 14.8
17:10 1019 30.09 848 25.04 -4.9 23.1 66 -10.4 13.4
17:15 1019 30.09 848 25.04 -4.8 23.4 64 -10.5 13
17:20 1019 30.09 848 25.04 -4.7 23.6 63 -10.6 12.8
17:25 1019 30.09 848 25.04 -4.7 23.6 63 -10.8 12.6
17:30 1019 30.09 848 25.04 -4.6 23.6 61 -11.1 12.1
17:35 1019 30.09 848 25.04 -4.7 23.6 60 -11.2 11.8
17:40 1019 30.09 849 25.07 -4.7 23.5 60 -11.4 11.5
17:45 1019 30.09 849 25.07 -4.7 23.5 58 -11.8 10.8
17:50 1019 30.09 849 25.07 -4.8 23.4 56 -12.2 10
17:55 1020 30.12 849 25.07 -4.9 23.2 56 -12.4 9.6
18:00 1020 30.12 849 25.07 -5.1 22.8 57 -12.2 10
18:05 1020 30.12 849 25.07 -5.2 22.6 57 -12.5 9.6
18:10 1020 30.12 849 25.07 -5.2 22.6 56 -12.7 9.2
18:15 1020 30.12 849 25.07 -5.4 22.3 57 -12.7 9.2
18:20 1020 30.12 849 25.07 -5.5 22.1 57 -12.8 9
18:25 1020 30.12 849 25.07 -5.6 22 57 -12.9 8.8
18:30 1020 30.12 849 25.07 -5.6 22 57 -12.8 9
18:35 1020 30.12 850 25.1 -5.6 21.8 58 -12.6 9.4
18:40 1020 30.12 850 25.1 -5.8 21.5 59 -12.7 9.2
18:45 1020 30.12 850 25.1 -5.9 21.3 59 -12.6 9.3
18:50 1021 30.15 850 25.1 -6 21.2 59 -12.7 9.1
18:55 1021 30.15 850 25.1 -6.1 21 59 -12.9 8.8
19:00 1021 30.15 850 25.1 -6.1 21 58 -13.1 8.4
19:05 1021 30.15 850 25.1 -6.2 20.9 58 -13.1 8.4
19:10 1021 30.15 850 25.1 -6.1 21 58 -13.1 8.4
19:15 1021 30.15 850 25.1 -6.1 21 58 -13.2 8.2
19:20 1021 30.15 850 25.1 -6.2 20.9 58 -13.1 8.5
19:25 1021 30.15 850 25.1 -6.4 20.6 58 -13.2 8.2
19:30 1021 30.15 850 25.1 -6.4 20.4 58 -13.3 8
19:35 1021 30.15 850 25.1 -6.5 20.3 59 -13.3 8
19:40 1021 30.15 850 25.1 -6.6 20.2 59 -13.3 8.1
19:45 1021 30.15 850 25.1 -6.6 20.1 59 -13.4 7.8
19:50 1021 30.15 850 25.1 -6.6 20.1 58 -13.6 7.6
19:55 1021 30.15 850 25.1 -6.6 20.2 58 -13.5 7.7
20:00 1021 30.15 850 25.1 -6.6 20.2 58 -13.5 7.8
20:05 1021 30.15 851 25.13 -6.6 20.1 59 -13.4 7.8
20:10 1021 30.15 851 25.13 -6.6 20.1 59 -13.3 8.1
20:15 1021 30.15 851 25.13 -6.5 20.2 60 -13.1 8.5
20:20 1021 30.15 851 25.13 -6.6 20.1 61 -13 8.6
20:25 1021 30.15 851 25.13 -6.6 20.1 60 -13.2 8.3
20:30 1021 30.15 851 25.13 -6.6 20.2 60 -13.1 8.5
20:35 1021 30.15 851 25.13 -6.6 20.1 62 -12.7 9.1
20:40 1021 30.15 851 25.13 -6.7 19.9 63 -12.7 9.2
20:45 1022 30.18 851 25.13 -6.9 19.5 64 -12.7 9.1
20:50 1022 30.18 851 25.13 -6.9 19.6 64 -12.7 9.2
20:55 1022 30.18 851 25.13 -6.9 19.6 64 -12.6 9.3
21:00 1022 30.18 851 25.13 -6.7 19.9 64 -12.5 9.4
21:05 1022 30.18 851 25.13 -6.7 19.9 64 -12.4 9.7
21:10 1022 30.18 851 25.13 -6.8 19.8 64 -12.5 9.6
21:15 1022 30.18 851 25.13 -6.9 19.5 67 -12.1 10.2
21:20 1022 30.18 851 25.13 -7 19.3 67 -12.3 9.9
21:25 1022 30.18 851 25.13 -7 19.3 66 -12.3 9.8
21:30 1022 30.18 851 25.13 -7.2 19 67 -12.2 10
21:35 1022 30.18 851 25.13 -7.3 18.9 67 -12.4 9.6
21:40 1022 30.18 851 25.13 -7.4 18.7 67 -12.5 9.6
21:45 1022 30.18 851 25.13 -7.6 18.3 68 -12.5 9.5
21:50 1022 30.18 851 25.13 -7.8 17.9 68 -12.7 9.2
21:55 1022 30.18 851 25.13 -8 17.6 68 -12.8 8.9
22:00 1022 30.18 851 25.13 -8 17.6 68 -12.9 8.8
22:05 1022 30.18 851 25.13 -8 17.6 67 -13 8.5
22:10 1022 30.18 851 25.13 -7.9 17.8 66 -13.1 8.3
22:15 1022 30.18 851 25.13 -7.9 17.7 66 -13.2 8.2
22:20 1022 30.18 852 25.16 -8 17.6 66 -13.3 8
22:25 1022 30.18 852 25.16 -8 17.7 65 -13.5 7.6
22:30 1022 30.18 852 25.16 -7.9 17.8 64 -13.6 7.5
22:35 1023 30.21 852 25.16 -7.9 17.7 64 -13.7 7.4
22:40 1023 30.21 852 25.16 -7.9 17.7 63 -13.7 7.3
22:45 1023 30.21 852 25.16 -7.8 17.9 62 -13.8 7.1
22:50 1023 30.21 852 25.16 -7.7 18.1 63 -13.7 7.4
22:55 1023 30.21 852 25.16 -7.6 18.4 61 -13.8 7.2
23:00 1023 30.21 852 25.16 -7.5 18.5 62 -13.6 7.5
23:05 1023 30.21 852 25.16 -7.4 18.8 61 -13.7 7.3
23:10 1023 30.21 852 25.16 -7.3 18.8 61 -13.5 7.7
23:15 1023 30.21 852 25.16 -7.3 19 60 -13.7 7.3
23:20 1023 30.21 852 25.16 -7.3 19 60 -13.7 7.4
23:25 1023 30.21 852 25.16 -7.3 19 61 -13.6 7.5
23:30 1023 30.21 852 25.16 -7.3 18.8 62 -13.5 7.7
23:35 1023 30.21 852 25.16 -7.4 18.7 62 -13.4 7.8
23:40 1023 30.21 852 25.16 -7.4 18.6 61 -13.7 7.4
23:45 1023 30.21 852 25.16 -7.6 18.4 63 -13.5 7.8
23:50 1023 30.21 852 25.16 -8.1 17.4 65 -13.5 7.6
23:55 1023 30.21 852 25.16 -8.4 16.9 65 -13.8 7.1
24:00 1023 30.21 852 25.16 -8.4 16.9 65 -13.9 7